Time;durP1;ratioP1;P1;durP2;ratioP2;P2;SDS_P1;SDS_P2;PMS_P1;PMS_P2;Temp;Humidity;BMP_temperature;BMP_pressure;BME280_temperature;BME280_humidity;BME280_pressure;Samples;Min_cycle;Max_cycle;Signal;HPM_P1;HPM_P2
2022/06/22 00:01:05;;;;;;;3.92;1.23;;;;;;;16.71;50.42;100154.38;10340385;28;20124;-76
2022/06/22 00:06:20;;;;;;;5.18;1.40;;;;;;;16.86;49.72;100159.09;10337902;28;20042;-77
2022/06/22 00:11:26;;;;;;;5.38;1.70;;;;;;;16.96;50.18;100173.34;10334811;28;20625;-77
2022/06/22 00:16:33;;;;;;;4.63;2.15;;;;;;;17.04;50.04;100167.91;10343664;28;20058;-76
2022/06/22 00:21:40;;;;;;;2.80;1.58;;;;;;;17.04;49.90;100162.50;10361494;28;20045;-77
2022/06/22 00:26:48;;;;;;;2.38;1.55;;;;;;;16.96;51.26;100149.78;10341854;28;20042;-77
2022/06/22 00:32:02;;;;;;;3.03;1.52;;;;;;;16.92;50.82;100155.69;10350157;28;20069;-77
2022/06/22 00:37:13;;;;;;;3.65;1.70;;;;;;;16.95;51.50;100166.22;10358329;28;20050;-76
2022/06/22 00:42:28;;;;;;;3.53;2.38;;;;;;;16.84;51.63;100177.41;10361491;28;20081;-76
2022/06/22 00:47:36;;;;;;;4.10;1.80;;;;;;;16.77;52.04;100174.53;10340703;28;20064;-77
2022/06/22 00:52:42;;;;;;;7.28;2.15;;;;;;;16.62;51.53;100170.81;10330653;28;20046;-77
2022/06/22 00:57:50;;;;;;;6.07;2.10;;;;;;;16.59;51.93;100167.44;10336976;28;20056;-77
2022/06/22 01:02:59;;;;;;;4.65;2.33;;;;;;;16.59;52.18;100164.72;10353358;28;20081;-76
2022/06/22 01:08:11;;;;;;;8.32;2.15;;;;;;;16.44;52.45;100157.41;10372998;28;20073;-77
2022/06/22 01:13:20;;;;;;;4.47;2.08;;;;;;;16.44;53.09;100144.72;10341346;28;20057;-77
2022/06/22 01:18:30;;;;;;;6.63;2.42;;;;;;;16.41;52.98;100149.63;10373437;28;20053;-76
2022/06/22 01:24:05;;;;;;;4.05;2.90;;;;;;;16.41;53.37;100149.63;10334479;28;20100;-77
2022/06/22 01:29:14;;;;;;;5.45;2.30;;;;;;;16.41;53.41;100144.22;10313125;28;20054;-78
2022/06/22 01:34:19;;;;;;;4.05;2.42;;;;;;;16.34;53.84;100130.47;10313940;28;20050;-77
2022/06/22 01:39:22;;;;;;;4.55;2.60;;;;;;;16.27;54.81;100124.03;10312025;28;20081;-77
2022/06/22 01:44:32;;;;;;;5.60;2.72;;;;;;;16.15;55.18;100127.03;10319619;28;20070;-79
2022/06/22 01:49:39;;;;;;;6.40;2.88;;;;;;;15.99;55.33;100113.47;10318352;28;20066;-78
2022/06/22 01:54:48;;;;;;;5.25;3.00;;;;;;;15.82;56.10;100112.56;10328525;28;20049;-78
2022/06/22 02:00:00;;;;;;;8.30;3.15;;;;;;;15.71;56.14;100115.56;10332449;28;20062;-78
2022/06/22 02:05:19;;;;;;;5.47;3.00;;;;;;;15.73;56.39;100105.44;10331169;28;20419;-78
2022/06/22 02:10:30;;;;;;;6.30;3.10;;;;;;;15.60;56.70;100111.28;10301743;28;20054;-79
2022/06/22 02:15:48;;;;;;;8.63;3.00;;;;;;;15.58;56.85;100107.09;10311064;28;20132;-78
2022/06/22 02:20:51;;;;;;;5.43;3.20;;;;;;;15.46;57.18;100101.09;10320038;28;20406;-78
2022/06/22 02:26:06;;;;;;;5.45;2.45;;;;;;;15.38;57.31;100114.59;10328394;28;21136;-78
2022/06/22 02:31:11;;;;;;;7.40;3.30;;;;;;;15.40;56.78;100123.41;10334617;28;20053;-78
2022/06/22 02:36:15;;;;;;;4.70;2.70;;;;;;;15.28;56.90;100120.13;10310981;28;20054;-77
2022/06/22 02:46:43;;;;;;;5.53;2.97;;;;;;;15.06;56.54;100097.19;10314408;28;20052;-78
2022/06/22 02:51:49;;;;;;;5.35;2.67;;;;;;;14.98;56.94;100106.09;10318000;28;20066;-77
2022/06/22 03:03:43;;;;;;;7.05;2.63;;;;;;;15.09;56.12;100112.25;10322952;28;20428;-77
2022/06/22 03:08:46;;;;;;;6.22;2.60;;;;;;;15.00;55.86;100123.00;10316425;28;20550;-77
2022/06/22 03:13:50;;;;;;;;;;;;;;;14.80;56.38;100122.34;10313444;28;20129;-77
2022/06/22 03:18:56;;;;;;;4.88;3.00;;;;;;;14.64;56.71;100113.28;10308849;28;19991;-77
2022/06/22 03:24:06;;;;;;;4.63;2.75;;;;;;;14.71;57.15;100092.72;10324810;28;20049;-77
2022/06/22 03:29:18;;;;;;;3.85;2.55;;;;;;;14.66;57.34;100104.00;10298961;28;20050;-77
2022/06/22 03:34:27;;;;;;;4.68;2.33;;;;;;;14.67;57.60;100094.88;10284607;28;20050;-77
2022/06/22 03:39:37;;;;;;;3.50;2.45;;;;;;;14.70;57.17;100108.09;10307773;28;20068;-77
2022/06/22 03:44:43;;;;;;;5.70;3.35;;;;;;;14.66;56.93;100103.16;10302665;28;20054;-78
2022/06/22 03:49:56;;;;;;;3.85;3.10;;;;;;;14.71;57.06;100107.09;10305853;28;20095;-78
2022/06/22 03:55:04;;;;;;;5.38;3.22;;;;;;;14.63;57.19;100087.25;10326374;28;20136;-78
2022/06/22 04:00:11;;;;;;;3.35;2.92;;;;;;;14.60;57.66;100081.16;10332580;28;20077;-79
2022/06/22 04:05:18;;;;;;;5.07;2.80;;;;;;;14.57;57.54;100094.16;10321718;28;20053;-78
2022/06/22 04:10:34;;;;;;;3.30;2.72;;;;;;;14.59;57.75;100100.25;10318164;28;20049;-78
2022/06/22 04:15:43;;;;;;;4.75;3.00;;;;;;;14.64;57.91;100083.53;10308110;28;20586;-78
2022/06/22 04:20:52;;;;;;;6.38;2.95;;;;;;;14.58;58.44;100099.38;10314680;28;20061;-78
2022/06/22 04:25:58;;;;;;;7.05;3.40;;;;;;;14.58;58.56;100104.78;10298672;28;20066;-78
2022/06/22 04:31:02;;;;;;;6.20;3.78;;;;;;;14.70;58.49;100107.22;10307958;28;20499;-78
2022/06/22 04:36:11;;;;;;;5.30;2.38;;;;;;;14.87;58.98;100100.94;10318574;28;20050;-78
2022/06/22 04:41:23;;;;;;;5.13;3.10;;;;;;;15.04;58.22;100118.97;10324077;28;20048;-79
2022/06/22 04:46:29;;;;;;;4.60;2.63;;;;;;;15.35;57.77;100131.16;10322208;28;20106;-77
2022/06/22 04:51:37;;;;;;;4.43;2.33;;;;;;;15.56;57.26;100133.47;10348910;28;20140;-78
2022/06/22 04:56:44;;;;;;;6.30;2.28;;;;;;;15.76;56.47;100136.75;10294829;28;20137;-78
2022/06/22 05:01:52;;;;;;;6.82;2.92;;;;;;;15.90;55.58;100127.97;10313109;28;20077;-78
2022/06/22 05:07:02;;;;;;;6.78;3.20;;;;;;;16.10;55.47;100131.28;10327678;28;20048;-78
2022/06/22 05:12:12;;;;;;;7.05;3.47;;;;;;;16.21;54.93;100151.75;10337712;28;20050;-78
2022/06/22 05:17:21;;;;;;;6.68;2.85;;;;;;;16.21;54.96;100147.22;10289820;28;20125;-78
2022/06/22 05:22:25;;;;;;;4.90;2.35;;;;;;;16.13;55.57;100131.78;10302365;28;20393;-78
2022/06/22 05:27:32;;;;;;;4.80;2.67;;;;;;;16.26;55.53;100134.00;10318603;28;20050;-77
2022/06/22 05:32:43;;;;;;;8.05;3.53;;;;;;;16.36;55.73;100148.25;10337448;28;20201;-77
2022/06/22 05:37:50;;;;;;;7.13;3.20;;;;;;;16.52;56.19;100152.00;10327720;28;20058;-78
2022/06/22 05:42:53;;;;;;;7.70;3.42;;;;;;;16.61;55.89;100150.97;10303142;28;20433;-78
2022/06/22 05:47:57;;;;;;;6.72;3.83;;;;;;;16.74;55.25;100145.91;10304032;28;21210;-78
2022/06/22 05:53:06;;;;;;;5.97;3.85;;;;;;;16.73;54.96;100165.03;10316504;28;20215;-79
2022/06/22 05:58:16;;;;;;;5.45;2.95;;;;;;;16.95;55.11;100169.78;10323406;28;20084;-79
2022/06/22 06:03:33;;;;;;;7.00;3.50;;;;;;;17.14;55.11;100178.59;10328119;28;20082;-78
2022/06/22 06:08:42;;;;;;;6.03;3.45;;;;;;;17.27;55.06;100161.78;10309913;28;20050;-78
2022/06/22 06:13:49;;;;;;;7.13;3.42;;;;;;;17.41;54.42;100151.03;10314732;28;20049;-78
2022/06/22 06:18:56;;;;;;;5.28;3.15;;;;;;;17.59;53.78;100150.00;10316845;28;20094;-78
2022/06/22 06:24:04;;;;;;;6.50;3.20;;;;;;;17.80;53.15;100155.66;10316492;28;20053;-78
2022/06/22 06:29:12;;;;;;;3.95;2.67;;;;;;;17.92;52.96;100147.97;10314332;28;20189;-78
2022/06/22 06:34:20;;;;;;;6.00;2.97;;;;;;;18.21;51.65;100152.75;10306037;28;20050;-78
2022/06/22 06:39:29;;;;;;;5.00;2.55;;;;;;;18.41;50.68;100144.13;10300298;28;20108;-78
2022/06/22 06:44:36;;;;;;;4.43;2.70;;;;;;;18.54;49.93;100152.50;10309532;28;20050;-78
2022/06/22 06:49:45;;;;;;;6.35;2.75;;;;;;;18.94;49.79;100162.22;10323005;28;20209;-78
2022/06/22 06:54:58;;;;;;;6.05;2.28;;;;;;;19.26;49.10;100153.94;10306422;28;20065;-77
2022/06/22 07:00:05;;;;;;;3.90;2.20;;;;;;;19.60;47.93;100167.00;10359381;28;20602;-78
2022/06/22 07:05:13;;;;;;;4.55;2.13;;;;;;;20.01;47.47;100163.75;10330623;28;20080;-78
2022/06/22 07:10:24;;;;;;;4.70;2.13;;;;;;;20.28;45.97;100160.28;10325505;28;20061;-77
2022/06/22 07:15:31;;;;;;;5.43;2.08;;;;;;;20.86;45.01;100165.69;10319861;28;20058;-77
2022/06/22 07:20:40;;;;;;;6.70;1.98;;;;;;;22.24;41.43;100164.00;10295055;28;20054;-78
2022/06/22 07:25:47;;;;;;;5.13;2.20;;;;;;;25.95;36.83;100157.03;10323854;28;20056;-78
2022/06/22 07:30:54;;;;;;;5.10;2.00;;;;;;;28.46;32.52;100155.50;10317047;28;20117;-78
2022/06/22 07:36:03;;;;;;;4.00;1.83;;;;;;;29.82;29.64;100148.84;10333902;28;20577;-78
2022/06/22 07:41:20;;;;;;;5.20;1.92;;;;;;;30.88;28.24;100136.38;10309923;28;20156;-79
2022/06/22 07:46:31;;;;;;;5.18;2.22;;;;;;;30.60;28.66;100147.75;10298135;28;20050;-76
2022/06/22 07:51:38;;;;;;;8.32;1.90;;;;;;;29.97;29.52;100137.09;10316499;28;20046;-77
2022/06/22 07:56:53;;;;;;;4.25;1.90;;;;;;;28.42;30.81;100139.72;10301033;28;20145;-78
2022/06/22 08:02:01;;;;;;;3.35;1.60;;;;;;;26.41;33.73;100144.56;10299848;28;20062;-77
2022/06/22 08:07:08;;;;;;;4.18;1.65;;;;;;;25.00;35.95;100145.53;10298717;28;20507;-77
2022/06/22 08:12:16;;;;;;;6.20;1.80;;;;;;;24.61;36.42;100140.16;10308159;28;20274;-77
2022/06/22 08:17:32;;;;;;;4.15;1.85;;;;;;;24.30;38.33;100149.22;10308937;28;20054;-77
2022/06/22 08:22:35;;;;;;;2.25;1.50;;;;;;;24.94;35.80;100145.34;10325742;28;20038;-77
2022/06/22 08:27:40;;;;;;;4.28;1.60;;;;;;;25.59;35.19;100130.34;10327140;28;20045;-77
2022/06/22 08:32:47;;;;;;;2.80;1.10;;;;;;;25.88;34.72;100130.66;10320497;28;20047;-77
2022/06/22 08:37:56;;;;;;;7.45;1.45;;;;;;;25.96;34.41;100120.16;10317283;28;20074;-77
2022/06/22 08:43:07;;;;;;;3.80;1.30;;;;;;;25.85;33.29;100123.69;10307562;28;20116;-77
2022/06/22 08:48:33;;;;;;;3.33;1.27;;;;;;;26.31;33.52;100126.94;10327289;28;20113;-77
2022/06/22 08:53:53;;;;;;;18.92;2.58;;;;;;;26.06;33.12;100119.63;10325680;28;20148;-77
2022/06/22 08:59:28;;;;;;;6.30;1.80;;;;;;;25.89;33.38;100127.69;10308220;28;20093;-77
2022/06/22 09:04:41;;;;;;;5.05;1.33;;;;;;;25.82;34.41;100118.66;10312320;28;20077;-77
2022/06/22 09:10:26;;;;;;;5.07;1.30;;;;;;;25.97;33.91;100132.00;10315850;28;20050;-77
2022/06/22 09:15:44;;;;;;;3.28;1.17;;;;;;;25.97;33.49;100119.09;10277442;28;20069;-78
2022/06/22 09:20:58;;;;;;;5.10;1.50;;;;;;;25.97;33.54;100126.50;10294929;28;20089;-76
2022/06/22 09:26:12;;;;;;;3.80;1.40;;;;;;;26.29;33.10;100133.47;10303738;28;20081;-77
2022/06/22 09:31:42;;;;;;;4.13;1.50;;;;;;;26.92;32.18;100136.75;10309697;28;20049;-77
2022/06/22 09:37:01;;;;;;;4.18;1.50;;;;;;;27.60;31.83;100140.81;10313069;28;20054;-77
2022/06/22 09:42:20;;;;;;;3.33;1.40;;;;;;;27.68;32.51;100139.63;10314083;28;20058;-77
2022/06/22 09:47:53;;;;;;;3.70;1.20;;;;;;;28.12;31.81;100139.97;10295588;28;20217;-77
2022/06/22 09:53:38;;;;;;;3.65;1.23;;;;;;;27.85;30.89;100137.75;10299736;28;20149;-77
2022/06/22 09:59:18;;;;;;;3.30;1.60;;;;;;;27.23;31.73;100134.72;10315864;28;20046;-76
2022/06/22 10:04:58;;;;;;;4.70;1.42;;;;;;;27.75;31.28;100123.75;10309914;28;20054;-77
2022/06/22 10:10:14;;;;;;;3.08;1.20;;;;;;;28.60;29.20;100133.13;10285999;28;20056;-79
2022/06/22 10:15:37;;;;;;;4.25;1.25;;;;;;;28.60;29.84;100142.25;10323469;28;20052;-79
2022/06/22 10:20:49;;;;;;;3.95;1.20;;;;;;;28.44;28.80;100138.38;10330970;28;20070;-78
2022/06/22 10:26:01;;;;;;;4.95;1.70;;;;;;;28.47;28.36;100148.09;10337397;28;20057;-77
2022/06/22 10:31:15;;;;;;;1.98;1.30;;;;;;;28.22;29.55;100154.81;10331026;28;20049;-78
2022/06/22 10:36:46;;;;;;;3.58;1.65;;;;;;;28.36;29.30;100155.34;10311077;28;21314;-78
2022/06/22 10:47:38;;;;;;;5.05;1.50;;;;;;;29.22;28.15;100155.19;10304709;28;20045;-78
2022/06/22 10:53:03;;;;;;;2.70;1.35;;;;;;;29.56;28.13;100153.16;10305436;28;20120;-78
2022/06/22 10:58:30;;;;;;;3.30;1.45;;;;;;;29.53;28.35;100150.06;10309855;28;20081;-78
2022/06/22 11:04:02;;;;;;;3.33;1.33;;;;;;;29.45;27.57;100158.81;10306506;28;20056;-78
2022/06/22 11:09:32;;;;;;;2.90;1.40;;;;;;;30.05;27.67;100141.34;10311949;28;20669;-78
2022/06/22 11:15:17;;;;;;;2.28;1.42;;;;;;;30.41;26.26;100128.72;10315247;28;20423;-78
2022/06/22 11:20:40;;;;;;;2.95;1.45;;;;;;;30.06;28.02;100129.19;10306461;28;20057;-78
2022/06/22 11:31:30;;;;;;;3.95;1.50;;;;;;;30.36;26.99;100122.28;10315686;28;20046;-78
2022/06/22 11:36:48;;;;;;;1.42;1.20;;;;;;;30.51;26.67;100105.00;10300376;28;20061;-79
2022/06/22 11:42:24;;;;;;;2.53;1.30;;;;;;;30.76;23.79;100113.53;10313338;28;20057;-78
2022/06/22 11:47:38;;;;;;;2.35;1.10;;;;;;;31.00;24.42;100105.69;10307973;28;20420;-78
2022/06/22 11:53:07;;;;;;;4.45;1.20;;;;;;;31.06;24.93;100112.91;10308736;28;20120;-78
2022/06/22 11:58:32;;;;;;;3.38;1.17;;;;;;;31.10;23.33;100097.44;10306018;28;20193;-78
2022/06/22 12:04:00;;;;;;;3.00;1.00;;;;;;;30.77;22.36;100089.41;10298517;28;20126;-78
2022/06/22 12:09:19;;;;;;;1.17;1.00;;;;;;;30.64;23.79;100085.97;10309105;28;20050;-78
2022/06/22 12:20:09;;;;;;;2.53;1.15;;;;;;;30.74;21.09;100087.19;10326166;28;20046;-78
2022/06/22 12:25:26;;;;;;;2.95;0.95;;;;;;;31.00;22.03;100083.50;10328902;28;20057;-79
2022/06/22 12:30:50;;;;;;;0.95;0.85;;;;;;;31.26;22.97;100078.94;10305591;28;20046;-77
2022/06/22 12:35:58;;;;;;;2.25;0.80;;;;;;;31.87;23.35;100078.41;10328767;28;20059;-76
2022/06/22 12:41:11;;;;;;;2.15;1.00;;;;;;;31.70;22.61;100064.72;10329963;28;20046;-79
2022/06/22 12:46:27;;;;;;;2.22;1.02;;;;;;;32.10;23.04;100056.78;10319015;28;20065;-80
2022/06/22 12:51:34;;;;;;;2.13;1.00;;;;;;;31.45;21.76;100056.28;10315520;28;20462;-77
2022/06/22 12:56:42;;;;;;;3.83;1.20;;;;;;;31.29;21.15;100038.72;10320881;28;20057;-77
2022/06/22 13:01:46;;;;;;;3.58;1.15;;;;;;;31.67;23.98;100036.69;10329968;28;20041;-77
2022/06/22 13:06:54;;;;;;;3.25;1.17;;;;;;;31.02;24.68;100020.28;10335277;28;20041;-77
2022/06/22 13:12:01;;;;;;;3.40;1.25;;;;;;;32.18;23.86;100025.69;10320278;28;20124;-76
2022/06/22 13:17:23;;;;;;;1.77;1.00;;;;;;;32.98;23.25;100012.00;10331646;28;20419;-77
2022/06/22 13:22:31;;;;;;;;;;;;;;;32.35;22.40;100020.69;10314135;28;20050;-77
2022/06/22 13:27:45;;;;;;;2.70;1.13;;;;;;;32.08;23.65;100009.81;10308754;28;20382;-78
2022/06/22 13:33:03;;;;;;;5.45;0.90;;;;;;;33.19;22.41;100003.63;10306702;28;20692;-77
2022/06/22 13:38:18;;;;;;;2.15;1.10;;;;;;;33.48;22.02;100004.56;10335658;28;21242;-78
2022/06/22 13:43:34;;;;;;;4.45;1.17;;;;;;;33.10;21.13;99992.19;10325245;28;20653;-75
2022/06/22 13:48:46;;;;;;;3.53;1.17;;;;;;;33.08;22.05;99984.16;10334560;28;20526;-79
2022/06/22 13:54:12;;;;;;;1.77;0.98;;;;;;;33.60;21.87;99981.97;10298891;28;20050;-77
2022/06/22 13:59:24;;;;;;;2.55;1.20;;;;;;;33.68;21.11;99978.59;10308940;28;20138;-78
2022/06/22 14:04:32;;;;;;;1.95;1.13;;;;;;;33.41;20.25;99976.22;10326109;28;20151;-76
2022/06/22 14:09:40;;;;;;;2.33;1.05;;;;;;;33.58;19.60;99966.66;10327360;28;20042;-78
2022/06/22 14:14:59;;;;;;;4.20;1.08;;;;;;;33.89;20.46;99967.31;10293372;28;20522;-78
2022/06/22 14:20:11;;;;;;;1.63;0.95;;;;;;;33.57;20.31;99962.19;10315822;28;20062;-79
2022/06/22 14:25:22;;;;;;;2.03;0.85;;;;;;;32.75;20.14;99960.63;10317944;28;20846;-79
2022/06/22 14:30:36;;;;;;;2.90;1.10;;;;;;;32.79;19.70;99970.06;10313346;28;20054;-77
2022/06/22 14:35:51;;;;;;;0.80;0.70;;;;;;;32.66;19.64;99967.84;10315711;28;20106;-79
2022/06/22 14:41:26;;;;;;;3.60;1.00;;;;;;;33.21;19.75;99960.44;10330834;28;20101;-77
2022/06/22 14:46:39;;;;;;;2.35;0.90;;;;;;;33.20;18.79;99967.16;10315135;28;20050;-76
2022/06/22 14:52:09;;;;;;;2.67;0.90;;;;;;;33.15;20.88;99974.69;10320247;28;21267;-77
2022/06/22 14:57:18;;;;;;;2.67;1.00;;;;;;;33.67;19.80;99956.59;10316270;28;20042;-80
2022/06/22 15:02:29;;;;;;;1.90;1.10;;;;;;;33.16;21.01;99948.50;10313260;28;20074;-78
2022/06/22 15:07:42;;;;;;;2.58;0.90;;;;;;;33.02;19.62;99945.50;10314464;28;20050;-77
2022/06/22 15:12:58;;;;;;;1.80;1.00;;;;;;;32.80;20.25;99960.63;10291169;28;20065;-78
2022/06/22 15:18:14;;;;;;;1.02;0.85;;;;;;;33.43;20.16;99951.69;10295909;28;20124;-77
2022/06/22 15:23:25;;;;;;;1.83;1.08;;;;;;;33.59;20.16;99955.22;10295220;28;20500;-77
2022/06/22 15:28:36;;;;;;;4.90;1.10;;;;;;;33.10;19.57;99954.09;10293338;28;20042;-79
2022/06/22 15:33:44;;;;;;;1.40;0.90;;;;;;;32.40;20.07;99945.66;10315594;28;20050;-76
2022/06/22 15:38:53;;;;;;;2.13;0.70;;;;;;;32.64;19.81;99945.06;10319726;28;20149;-78
2022/06/22 15:44:06;;;;;;;1.40;0.82;;;;;;;32.48;19.80;99947.03;10328465;28;20871;-79
2022/06/22 15:49:19;;;;;;;3.88;1.10;;;;;;;32.93;20.38;99950.81;10301019;28;20057;-79
2022/06/22 15:54:40;;;;;;;1.92;1.00;;;;;;;33.78;19.97;99935.91;10302251;28;20046;-78
2022/06/22 15:59:51;;;;;;;3.92;1.00;;;;;;;33.88;19.70;99940.59;10313826;28;20400;-79
2022/06/22 16:04:58;;;;;;;3.58;0.80;;;;;;;32.93;20.62;99936.91;10333931;28;20042;-77
2022/06/22 16:10:10;;;;;;;1.75;1.58;;;;;;;33.70;20.58;99939.31;10292128;28;20074;-76
2022/06/22 16:15:21;;;;;;;1.85;0.90;;;;;;;33.88;19.35;99941.41;10318669;28;20049;-78
2022/06/22 16:20:31;;;;;;;7.40;5.20;;;;;;;34.39;19.12;99942.91;10331395;28;21595;-77
2022/06/22 16:25:47;;;;;;;4.35;3.85;;;;;;;34.40;18.92;99939.84;10287395;28;20644;-79
2022/06/22 16:30:58;;;;;;;5.78;4.20;;;;;;;35.57;18.63;99942.34;10328179;28;20054;-77
2022/06/22 16:36:10;;;;;;;2.22;2.03;;;;;;;38.31;15.99;99941.00;10321312;28;20050;-77
2022/06/22 16:41:19;;;;;;;;;;;;;;;41.61;14.29;99934.25;10322194;28;20769;-76
2022/06/22 16:46:48;;;;;;;3.45;1.10;;;;;;;43.87;13.07;99934.16;10317695;28;19926;-77
2022/06/22 16:52:00;;;;;;;3.13;1.00;;;;;;;44.45;12.62;99925.25;10305136;28;20530;-79
2022/06/22 16:57:09;;;;;;;1.98;0.70;;;;;;;43.21;12.48;99929.75;10330244;28;20054;-78
2022/06/22 17:02:33;;;;;;;3.17;0.80;;;;;;;43.55;13.43;99931.19;10345735;28;20123;-80
2022/06/22 17:07:46;;;;;;;2.08;0.73;;;;;;;44.76;13.04;99926.44;10331383;28;20114;-82
2022/06/22 17:12:55;;;;;;;3.15;1.05;;;;;;;44.96;12.68;99921.69;10331073;28;20411;-80
2022/06/22 17:18:05;;;;;;;1.35;0.95;;;;;;;45.54;11.93;99922.63;10332310;28;20050;-80
2022/06/22 17:23:14;;;;;;;1.00;0.60;;;;;;;46.14;12.50;99918.53;10336427;28;20129;-79
2022/06/22 17:28:27;;;;;;;2.63;0.93;;;;;;;46.17;12.50;99914.94;10328039;28;20054;-78
2022/06/22 17:33:35;;;;;;;1.48;0.90;;;;;;;44.87;12.62;99921.84;10326511;28;20046;-78
2022/06/22 17:38:52;;;;;;;2.03;0.65;;;;;;;44.59;12.66;99925.59;10326166;28;20054;-77
2022/06/22 17:44:06;;;;;;;0.93;0.70;;;;;;;44.03;13.73;99925.75;10312061;28;20057;-80
2022/06/22 17:49:14;;;;;;;2.30;1.10;;;;;;;42.55;14.16;99935.66;10325920;28;20061;-80
2022/06/22 17:54:38;;;;;;;3.78;0.85;;;;;;;36.35;17.33;99945.56;10320543;28;20047;-78
2022/06/22 17:59:48;;;;;;;1.00;0.80;;;;;;;32.39;20.76;99949.56;10320102;28;20050;-78
2022/06/22 18:04:53;;;;;;;3.08;1.10;;;;;;;30.57;22.32;99946.78;10348314;28;20046;-79
2022/06/22 18:10:00;;;;;;;2.00;1.10;;;;;;;29.30;23.62;99961.13;10345954;28;20082;-79
2022/06/22 18:15:11;;;;;;;2.42;1.13;;;;;;;28.19;26.07;99964.78;10315443;28;20657;-80
2022/06/22 18:20:19;;;;;;;1.67;1.42;;;;;;;27.45;26.60;99967.56;10323279;28;20050;-78
2022/06/22 18:25:28;;;;;;;2.53;1.20;;;;;;;26.90;27.03;99962.56;10323677;28;20515;-80
2022/06/22 18:30:39;;;;;;;1.50;1.10;;;;;;;26.61;27.67;99956.94;10332863;28;20062;-80
2022/06/22 18:35:48;;;;;;;2.70;1.20;;;;;;;26.31;28.06;99953.50;10324070;28;20054;-80
2022/06/22 18:46:25;;;;;;;1.10;1.02;;;;;;;25.85;29.15;99956.72;10311442;28;20408;-79
2022/06/22 18:51:37;;;;;;;3.80;1.20;;;;;;;25.60;28.99;99945.03;10320630;28;20050;-78
2022/06/22 18:56:46;;;;;;;2.17;1.05;;;;;;;25.45;29.34;99945.44;10306876;28;20061;-77
2022/06/22 19:01:51;;;;;;;2.22;0.95;;;;;;;25.27;29.62;99956.50;10311621;28;20531;-76
2022/06/22 19:07:06;;;;;;;1.63;0.90;;;;;;;24.95;30.39;99959.38;10315120;28;20046;-77
2022/06/22 19:12:27;;;;;;;3.40;1.13;;;;;;;24.76;31.14;99966.78;10316399;28;20515;-77
2022/06/22 19:17:55;;;;;;;4.35;1.10;;;;;;;24.54;31.49;99953.50;10310601;28;20053;-76
2022/06/22 19:23:15;;;;;;;2.05;1.15;;;;;;;24.39;31.34;99963.13;10312312;28;20116;-77
2022/06/22 19:28:26;;;;;;;3.22;1.20;;;;;;;24.34;31.35;99973.94;10307880;28;20053;-77
2022/06/22 19:33:42;;;;;;;1.30;0.90;;;;;;;24.25;31.74;99985.22;10317519;28;20049;-77
2022/06/22 19:38:51;;;;;;;1.48;0.93;;;;;;;23.99;31.81;99990.91;10322916;28;20500;-77
2022/06/22 19:44:10;;;;;;;1.75;1.00;;;;;;;23.86;31.80;99989.06;10287966;28;20050;-76
2022/06/22 19:49:26;;;;;;;1.50;1.10;;;;;;;23.67;31.75;99990.88;10259358;28;20061;-78
2022/06/22 19:54:41;;;;;;;1.60;1.50;;;;;;;23.50;31.65;99996.00;10270942;28;20146;-78
2022/06/22 19:59:47;;;;;;;4.82;2.38;;;;;;;23.23;32.04;99995.31;10272596;28;20053;-78
2022/06/22 20:04:59;;;;;;;7.22;4.60;;;;;;;23.08;32.22;99992.78;10268011;28;20042;-78
2022/06/22 20:10:07;;;;;;;;;;;;;;;22.98;32.16;99998.75;10263517;28;20054;-78
2022/06/22 20:15:12;;;;;;;11.57;8.27;;;;;;;22.84;32.67;100008.03;10265691;28;20098;-77
2022/06/22 20:20:17;;;;;;;10.05;6.35;;;;;;;22.70;32.59;100012.69;10272208;28;20047;-77
2022/06/22 20:25:29;;;;;;;5.97;4.43;;;;;;;22.54;33.39;100014.00;10282567;28;20057;-77
2022/06/22 20:30:38;;;;;;;4.17;3.37;;;;;;;22.38;33.29;100008.06;10277231;28;20129;-77
2022/06/22 20:35:57;;;;;;;4.55;3.30;;;;;;;22.18;33.75;100013.53;10277403;28;20038;-77
2022/06/22 20:46:54;;;;;;;4.75;2.83;;;;;;;21.77;33.65;100026.31;10328593;28;20522;-77
2022/06/22 20:52:02;;;;;;;4.03;2.88;;;;;;;21.76;34.12;100021.88;10330302;28;20050;-77
2022/06/22 20:57:09;;;;;;;4.32;3.00;;;;;;;21.58;34.94;100029.78;10326993;28;20103;-77
2022/06/22 21:02:29;;;;;;;5.60;2.70;;;;;;;21.44;35.81;100031.63;10323492;28;20042;-77
2022/06/22 21:07:42;;;;;;;4.22;2.72;;;;;;;21.19;37.35;100047.69;10326886;28;20128;-76
2022/06/22 21:12:58;;;;;;;5.95;2.85;;;;;;;21.01;37.63;100038.13;10321545;28;20163;-74
2022/06/22 21:18:36;;;;;;;5.53;2.90;;;;;;;20.95;37.46;100054.44;10330003;28;20168;-76
2022/06/22 21:24:03;;;;;;;4.53;2.70;;;;;;;20.72;37.80;100071.94;10321855;28;20062;-76
2022/06/22 21:29:32;;;;;;;2.38;2.17;;;;;;;20.63;38.08;100064.97;10299236;28;20201;-76
2022/06/22 21:34:43;;;;;;;3.67;2.50;;;;;;;20.51;38.77;100069.25;10301530;28;20129;-76
2022/06/22 21:40:03;;;;;;;3.85;2.28;;;;;;;20.31;39.26;100063.63;10308794;28;20119;-76
2022/06/22 21:45:21;;;;;;;2.33;2.08;;;;;;;20.17;39.75;100073.53;10315528;28;20066;-76
2022/06/22 21:50:47;;;;;;;3.92;1.85;;;;;;;20.16;39.38;100077.31;10300981;28;20670;-76
2022/06/22 21:56:09;;;;;;;3.83;1.98;;;;;;;20.16;39.91;100081.91;10331322;28;20137;-76
2022/06/22 22:08:10;;;;;;;6.65;2.40;;;;;;;20.11;40.53;100087.97;10313339;28;20815;-76
2022/06/22 22:13:15;;;;;;;4.88;2.63;;;;;;;19.96;41.14;100082.53;10303907;28;20086;-76
2022/06/22 22:18:19;;;;;;;2.75;1.85;;;;;;;19.86;41.74;100101.09;10296319;28;20180;-76
2022/06/22 22:23:26;;;;;;;3.65;2.53;;;;;;;19.71;42.24;100105.72;10291418;28;20181;-76
2022/06/22 22:28:35;;;;;;;2.65;2.20;;;;;;;19.31;43.26;100097.88;10298547;28;20061;-76
2022/06/22 22:33:39;;;;;;;6.82;2.33;;;;;;;19.29;43.48;100109.97;10305438;28;20148;-76
2022/06/22 22:38:45;;;;;;;3.33;2.47;;;;;;;19.03;44.32;100116.72;10313630;28;20133;-76
2022/06/22 22:43:54;;;;;;;4.68;2.78;;;;;;;19.06;44.40;100115.50;10323073;28;20109;-76
2022/06/22 22:55:45;;;;;;;2.72;2.50;;;;;;;18.47;46.18;100129.78;10318944;28;20042;-76
2022/06/22 23:00:51;;;;;;;5.47;2.45;;;;;;;18.12;47.08;100129.34;10304237;28;20050;-76
2022/06/22 23:05:56;;;;;;;4.88;2.38;;;;;;;18.31;47.03;100123.44;10312416;28;20049;-76
2022/06/22 23:11:03;;;;;;;4.32;3.30;;;;;;;18.37;47.15;100121.88;10299941;28;20061;-76
2022/06/22 23:16:17;;;;;;;4.30;2.78;;;;;;;18.45;47.00;100120.97;10290670;28;20046;-76
2022/06/22 23:21:25;;;;;;;7.30;2.90;;;;;;;18.46;47.20;100130.84;10317349;28;20049;-76
2022/06/22 23:26:32;;;;;;;6.88;2.90;;;;;;;18.50;47.13;100137.59;10314201;28;20134;-75
2022/06/22 23:31:47;;;;;;;8.00;3.28;;;;;;;18.07;47.45;100145.34;10307826;28;20042;-76
2022/06/22 23:36:50;;;;;;;6.72;3.08;;;;;;;17.37;49.53;100147.00;10298378;28;20050;-76
2022/06/22 23:41:59;;;;;;;3.63;2.90;;;;;;;17.30;50.63;100151.41;10290193;28;20046;-75
2022/06/22 23:52:34;;;;;;;4.72;3.08;;;;;;;17.51;50.47;100148.16;10300059;28;20042;-75
2022/06/22 23:57:39;;;;;;;4.40;3.53;;;;;;;17.63;50.52;100143.16;10307758;28;20408;-75
